Time;durP1;ratioP1;P1;durP2;ratioP2;P2;SDS_P1;SDS_P2;PMS_P1;PMS_P2;Temp;Humidity;BMP_temperature;BMP_pressure;BME280_temperature;BME280_humidity;BME280_pressure;Samples;Min_cycle;Max_cycle;Signal;HPM_P1;HPM_P2
2022/11/22 00:00:42;;;;;;;4.77;3.10;;;7.50;99.90;;;;;;5013688;28;20992;-58
2022/11/22 00:03:10;;;;;;;6.77;3.60;;;7.30;99.90;;;;;;5013753;28;20509;-58
2022/11/22 00:05:39;;;;;;;13.27;4.20;;;7.30;99.90;;;;;;5014096;28;20897;-58
2022/11/22 00:08:06;;;;;;;6.77;3.30;;;7.40;99.90;;;;;;5013717;28;20497;-58
2022/11/22 00:10:34;;;;;;;6.30;4.20;;;7.50;99.90;;;;;;5015416;28;20554;-58
2022/11/22 00:13:01;;;;;;;4.93;3.40;;;7.60;99.90;;;;;;5017886;28;20850;-58
2022/11/22 00:15:29;;;;;;;6.60;3.77;;;7.70;99.90;;;;;;5017736;28;20557;-58
2022/11/22 00:17:57;;;;;;;5.73;3.40;;;7.60;99.90;;;;;;5017537;28;20458;-58
2022/11/22 00:20:24;;;;;;;5.27;3.97;;;7.60;99.90;;;;;;5018001;28;20862;-58
2022/11/22 00:22:52;;;;;;;4.40;4.00;;;7.60;99.90;;;;;;5017606;28;20582;-59
2022/11/22 00:25:20;;;;;;;11.43;4.50;;;7.60;99.90;;;;;;5017833;28;20558;-58
2022/11/22 00:27:47;;;;;;;4.17;3.17;;;7.40;99.90;;;;;;5017292;28;20984;-58
2022/11/22 00:30:15;;;;;;;8.40;4.70;;;7.40;99.90;;;;;;5017537;28;20450;-58
2022/11/22 00:32:42;;;;;;;6.77;3.50;;;7.30;99.90;;;;;;5017164;28;20989;-58
2022/11/22 00:35:10;;;;;;;6.77;3.57;;;7.40;99.90;;;;;;5017362;28;20510;-58
2022/11/22 00:37:38;;;;;;;7.27;3.60;;;7.40;99.90;;;;;;5017476;28;20859;-58
2022/11/22 00:40:08;;;;;;;4.90;3.70;;;7.40;99.90;;;;;;5017076;28;20447;-58
2022/11/22 00:42:35;;;;;;;3.57;3.23;;;7.50;99.90;;;;;;5017303;28;20475;-58
2022/11/22 00:45:03;;;;;;;3.50;3.20;;;7.40;99.90;;;;;;5016918;28;20502;-57
2022/11/22 00:47:30;;;;;;;4.73;3.00;;;7.50;99.90;;;;;;5017223;28;20474;-58
2022/11/22 00:49:57;;;;;;;3.90;2.83;;;7.60;99.90;;;;;;5016962;28;20505;-58
2022/11/22 00:52:25;;;;;;;5.33;2.90;;;7.60;99.90;;;;;;5016873;28;20512;-58
2022/11/22 00:54:52;;;;;;;5.03;3.07;;;7.60;99.90;;;;;;5016775;28;20905;-58
2022/11/22 00:57:21;;;;;;;4.00;2.77;;;7.50;99.90;;;;;;5017124;28;20447;-58
2022/11/22 00:59:48;;;;;;;3.97;3.37;;;7.50;99.90;;;;;;5016770;28;20478;-58
2022/11/22 01:02:15;;;;;;;4.43;2.80;;;7.50;99.90;;;;;;5016741;28;20447;-58
2022/11/22 01:04:42;;;;;;;3.37;2.70;;;7.60;99.90;;;;;;5016713;28;20522;-58
2022/11/22 01:07:10;;;;;;;4.67;2.97;;;7.70;99.90;;;;;;5016644;28;20481;-58
2022/11/22 01:09:38;;;;;;;4.53;2.77;;;7.60;99.90;;;;;;5016680;28;20485;-58
2022/11/22 01:12:05;;;;;;;3.23;2.93;;;7.70;99.90;;;;;;5016815;28;20439;-58
2022/11/22 01:14:34;;;;;;;8.33;2.90;;;7.60;99.90;;;;;;5016441;28;20451;-58
2022/11/22 01:17:01;;;;;;;3.97;2.80;;;7.60;99.90;;;;;;5016466;28;20450;-58
2022/11/22 01:19:29;;;;;;;3.20;2.90;;;7.60;99.90;;;;;;5016437;28;20938;-58
2022/11/22 01:22:00;;;;;;;3.27;2.97;;;7.60;99.90;;;;;;5015606;28;20543;-58
2022/11/22 01:24:28;;;;;;;3.90;3.37;;;7.60;99.90;;;;;;5016248;28;20483;-58
2022/11/22 01:26:56;;;;;;;4.63;3.00;;;7.60;99.90;;;;;;5016256;28;20455;-58
2022/11/22 01:29:23;;;;;;;4.27;3.63;;;7.50;99.90;;;;;;5016202;28;20541;-58
2022/11/22 01:31:52;;;;;;;3.80;2.80;;;7.50;99.90;;;;;;5016478;28;20505;-60
2022/11/22 01:34:19;;;;;;;11.40;3.87;;;7.50;99.90;;;;;;5016128;28;20541;-58
2022/11/22 01:36:46;;;;;;;5.80;3.10;;;7.60;99.90;;;;;;5016361;28;20897;-58
2022/11/22 01:39:14;;;;;;;5.67;3.43;;;7.70;99.90;;;;;;5016027;28;20490;-58
2022/11/22 01:41:42;;;;;;;3.83;2.63;;;7.60;99.90;;;;;;5015997;28;20459;-58
2022/11/22 01:44:28;;;;;;;2.93;2.63;;;7.70;99.90;;;;;;5015899;28;20670;-58
2022/11/22 01:46:59;;;;;;;3.57;3.27;;;7.60;99.90;;;;;;5015916;28;20513;-58
2022/11/22 01:49:33;;;;;;;5.13;3.20;;;7.50;99.90;;;;;;5016205;28;20770;-58
2022/11/22 01:52:05;;;;;;;4.37;3.97;;;7.50;99.90;;;;;;5015843;28;20482;-58
2022/11/22 01:54:36;;;;;;;3.30;3.00;;;7.60;99.90;;;;;;5015685;28;20515;-58
2022/11/22 01:57:07;;;;;;;3.97;3.00;;;7.60;99.90;;;;;;5015756;28;20522;-58
2022/11/22 01:59:36;;;;;;;3.70;3.00;;;7.60;99.90;;;;;;5016024;28;20502;-58
2022/11/22 02:02:07;;;;;;;4.93;2.80;;;7.60;99.90;;;;;;5015927;28;20493;-58
2022/11/22 02:04:37;;;;;;;3.27;2.83;;;7.60;99.90;;;;;;5015722;28;20553;-58
2022/11/22 02:07:08;;;;;;;4.23;2.90;;;7.70;99.90;;;;;;5015874;28;20514;-58
2022/11/22 02:09:37;;;;;;;3.23;2.77;;;7.70;99.90;;;;;;5015528;28;20510;-58
2022/11/22 02:12:08;;;;;;;5.70;3.00;;;7.70;99.90;;;;;;5015418;28;20475;-58
2022/11/22 02:14:36;;;;;;;3.50;2.70;;;7.70;99.90;;;;;;5015341;28;20463;-58
2022/11/22 02:17:05;;;;;;;4.47;3.30;;;7.70;99.90;;;;;;5015322;28;20501;-58
2022/11/22 02:19:40;;;;;;;3.00;2.80;;;7.70;99.90;;;;;;5015289;28;20509;-58
2022/11/22 02:22:19;;;;;;;4.40;2.90;;;7.80;99.90;;;;;;5015615;28;20855;-57
2022/11/22 02:24:53;;;;;;;3.73;2.80;;;7.90;99.90;;;;;;5015406;28;20471;-58
2022/11/22 02:27:23;;;;;;;3.10;2.90;;;7.80;99.90;;;;;;5015520;28;20442;-58
2022/11/22 02:29:51;;;;;;;3.57;2.67;;;7.70;99.90;;;;;;5015068;28;20451;-57
2022/11/22 02:32:18;;;;;;;7.20;3.10;;;7.70;99.90;;;;;;5014663;28;20487;-57
2022/11/22 02:34:47;;;;;;;4.87;2.70;;;7.80;99.90;;;;;;5014786;28;20482;-58
2022/11/22 02:37:18;;;;;;;5.30;2.83;;;7.90;99.90;;;;;;5015345;28;20529;-57
2022/11/22 02:39:49;;;;;;;4.10;2.60;;;7.90;99.90;;;;;;5014984;28;20441;-57
2022/11/22 02:42:16;;;;;;;3.50;3.10;;;7.90;99.90;;;;;;5015399;28;20439;-57
2022/11/22 02:44:45;;;;;;;3.27;2.87;;;7.90;99.90;;;;;;5014721;28;20493;-57
2022/11/22 02:47:13;;;;;;;5.60;3.43;;;7.80;99.90;;;;;;5014746;28;20483;-57
2022/11/22 02:49:41;;;;;;;3.13;2.80;;;7.80;99.90;;;;;;5015267;28;20451;-58
2022/11/22 02:52:08;;;;;;;7.03;3.80;;;7.80;99.90;;;;;;5015025;28;20455;-58
2022/11/22 02:54:36;;;;;;;6.10;4.07;;;7.80;99.90;;;;;;5014562;28;20934;-58
2022/11/22 02:57:03;;;;;;;5.10;2.93;;;7.60;99.90;;;;;;5014579;28;20950;-58
2022/11/22 02:59:31;;;;;;;3.30;2.70;;;7.60;99.90;;;;;;5014567;28;20452;-57
2022/11/22 03:02:00;;;;;;;4.00;2.57;;;7.60;99.90;;;;;;5014673;28;20930;-58
2022/11/22 03:04:27;;;;;;;2.60;2.40;;;7.70;99.90;;;;;;5014696;28;20545;-58
2022/11/22 03:06:56;;;;;;;7.93;3.23;;;7.60;99.90;;;;;;5014419;28;20534;-58
2022/11/22 03:09:24;;;;;;;4.10;2.90;;;7.70;99.90;;;;;;5014501;28;20451;-58
2022/11/22 03:11:51;;;;;;;3.53;2.77;;;7.50;99.90;;;;;;5014757;28;20780;-58
2022/11/22 03:14:19;;;;;;;5.17;2.90;;;7.50;99.90;;;;;;5014661;28;20844;-57
2022/11/22 03:16:47;;;;;;;3.07;2.87;;;7.50;99.90;;;;;;5014213;28;20550;-57
2022/11/22 03:19:16;;;;;;;2.90;2.50;;;7.50;99.90;;;;;;5014571;28;20478;-57
2022/11/22 03:21:43;;;;;;;3.23;2.50;;;7.50;99.90;;;;;;5014339;28;20446;-58
2022/11/22 03:24:11;;;;;;;3.77;3.00;;;7.50;99.90;;;;;;5014058;28;20540;-58
2022/11/22 03:26:39;;;;;;;2.90;2.60;;;7.50;99.90;;;;;;5014087;28;20553;-58
2022/11/22 03:29:06;;;;;;;5.33;2.87;;;7.50;99.90;;;;;;5014423;28;20866;-58
2022/11/22 03:31:33;;;;;;;3.20;2.70;;;7.60;99.90;;;;;;5014308;28;20542;-57
2022/11/22 03:34:01;;;;;;;3.07;2.87;;;7.60;99.90;;;;;;5014233;28;20477;-57
2022/11/22 03:36:29;;;;;;;2.90;2.60;;;7.60;99.90;;;;;;5013980;28;20558;-57
2022/11/22 03:38:56;;;;;;;3.07;2.80;;;7.50;99.90;;;;;;5014200;28;20451;-58
2022/11/22 03:41:24;;;;;;;3.80;3.17;;;7.60;99.90;;;;;;5013945;28;21003;-58
2022/11/22 03:43:51;;;;;;;3.47;2.97;;;7.50;99.90;;;;;;5013733;28;20717;-58
2022/11/22 03:46:19;;;;;;;4.50;2.70;;;7.40;99.90;;;;;;5013831;28;21033;-58
2022/11/22 03:48:47;;;;;;;6.00;2.73;;;7.40;99.90;;;;;;5014171;28;20473;-58
2022/11/22 03:51:14;;;;;;;5.33;2.30;;;7.50;99.90;;;;;;5013794;28;20479;-58
2022/11/22 03:53:43;;;;;;;3.40;2.50;;;7.50;99.90;;;;;;5014128;28;20486;-58
2022/11/22 03:56:10;;;;;;;3.33;2.60;;;7.50;99.90;;;;;;5013974;28;20978;-58
2022/11/22 03:58:38;;;;;;;5.17;2.60;;;7.50;99.90;;;;;;5013739;28;21024;-58
2022/11/22 04:01:05;;;;;;;3.90;2.90;;;7.50;99.90;;;;;;5014000;28;20455;-58
2022/11/22 04:03:32;;;;;;;2.73;2.43;;;7.40;99.90;;;;;;5013991;28;20529;-58
2022/11/22 04:06:00;;;;;;;3.57;2.90;;;7.40;99.90;;;;;;5014045;28;20574;-58
2022/11/22 04:08:27;;;;;;;3.77;3.27;;;7.40;99.90;;;;;;5013977;28;20509;-58
2022/11/22 04:10:56;;;;;;;2.53;2.37;;;7.40;99.90;;;;;;5013613;28;20556;-57
2022/11/22 04:15:05;;;;;;;5.73;3.30;;;7.50;99.90;;;;;;5013897;28;20538;-57
2022/11/22 04:16:10;;;;;;;3.23;2.60;;;7.40;99.90;;;;;;5013524;28;20455;-57
2022/11/22 04:18:37;;;;;;;8.13;3.00;;;7.40;99.90;;;;;;5013902;28;20525;-58
2022/11/22 04:25:12;;;;;;;4.63;2.97;;;7.20;99.90;;;;;;5013873;28;20406;-58
2022/11/22 04:26:37;;;;;;;4.63;3.30;;;7.20;99.90;;;;;;5013481;28;20454;-58
2022/11/22 04:29:04;;;;;;;3.10;2.50;;;7.30;99.90;;;;;;5013787;28;20531;-57
2022/11/22 04:34:16;;;;;;;3.03;2.73;;;7.30;99.90;;;;;;5013687;28;20777;-58
2022/11/22 04:36:44;;;;;;;4.43;3.07;;;7.20;99.90;;;;;;5013679;28;20558;-57
2022/11/22 04:39:11;;;;;;;3.53;2.63;;;7.20;99.90;;;;;;5013414;28;20535;-58
2022/11/22 04:41:40;;;;;;;3.40;2.63;;;7.20;99.90;;;;;;5013388;28;20455;-58
2022/11/22 04:46:53;;;;;;;4.00;2.60;;;7.00;99.90;;;;;;5013355;28;20446;-58
2022/11/22 04:49:20;;;;;;;6.37;2.80;;;7.00;99.90;;;;;;5013266;28;20517;-58
2022/11/22 04:54:32;;;;;;;3.33;2.60;;;7.00;99.90;;;;;;5013574;28;20403;-58
2022/11/22 04:57:01;;;;;;;3.67;2.20;;;7.00;99.90;;;;;;5015254;28;20525;-57
2022/11/22 04:59:28;;;;;;;2.87;2.50;;;6.80;99.90;;;;;;5016748;28;20509;-57
2022/11/22 05:01:56;;;;;;;4.40;3.00;;;6.90;99.90;;;;;;5016747;28;20485;-57
2022/11/22 05:04:23;;;;;;;3.40;2.60;;;6.90;99.90;;;;;;5016652;28;20529;-59
2022/11/22 05:06:50;;;;;;;3.77;2.50;;;6.80;99.90;;;;;;5016660;28;20501;-57
2022/11/22 05:09:18;;;;;;;3.03;2.40;;;6.70;99.90;;;;;;5016490;28;20486;-58
2022/11/22 05:11:45;;;;;;;7.10;2.57;;;6.60;99.90;;;;;;5016930;28;20463;-57
2022/11/22 05:14:14;;;;;;;5.03;2.70;;;6.60;99.90;;;;;;5016566;28;20502;-57
2022/11/22 05:16:41;;;;;;;3.23;2.73;;;6.60;99.90;;;;;;5016473;28;20503;-57
2022/11/22 05:19:08;;;;;;;3.53;2.77;;;6.70;99.90;;;;;;5016959;28;20869;-58
2022/11/22 05:21:36;;;;;;;4.03;2.40;;;6.60;99.90;;;;;;5016343;28;20930;-58
2022/11/22 05:24:02;;;;;;;4.93;2.80;;;6.50;99.90;;;;;;5016389;28;20972;-57
2022/11/22 05:26:31;;;;;;;4.43;2.57;;;6.60;99.90;;;;;;5016483;28;20554;-57
2022/11/22 05:28:59;;;;;;;9.30;2.60;;;6.60;99.90;;;;;;5016316;28;21020;-58
2022/11/22 05:31:28;;;;;;;3.70;3.20;;;6.60;99.90;;;;;;5016527;28;20867;-58
2022/11/22 05:33:57;;;;;;;4.37;2.30;;;6.60;99.90;;;;;;5016033;28;20483;-58
2022/11/22 05:36:25;;;;;;;5.97;2.10;;;6.50;99.90;;;;;;5016045;28;20471;-58
2022/11/22 05:38:53;;;;;;;4.40;2.60;;;6.50;99.90;;;;;;5016399;28;20606;-58
2022/11/22 05:41:20;;;;;;;8.20;4.97;;;6.60;99.90;;;;;;5016255;28;20871;-57
2022/11/22 05:43:47;;;;;;;6.00;3.13;;;6.60;99.90;;;;;;5016355;28;20486;-57
2022/11/22 05:46:16;;;;;;;9.20;3.50;;;6.70;99.90;;;;;;5015805;28;21072;-58
2022/11/22 05:48:46;;;;;;;4.00;2.53;;;6.70;99.90;;;;;;5016691;28;20494;-58
2022/11/22 05:51:15;;;;;;;4.30;2.60;;;6.80;99.90;;;;;;5016210;28;20537;-58
2022/11/22 05:53:43;;;;;;;3.20;2.27;;;6.80;99.90;;;;;;5016217;28;20787;-58
2022/11/22 05:56:12;;;;;;;4.93;2.83;;;6.90;99.90;;;;;;5015898;28;20506;-58
2022/11/22 05:58:39;;;;;;;5.83;3.30;;;6.90;99.90;;;;;;5015669;28;20539;-58
2022/11/22 06:01:08;;;;;;;4.13;2.90;;;7.00;99.90;;;;;;5016506;28;20530;-58
2022/11/22 06:03:36;;;;;;;6.57;3.63;;;7.00;99.90;;;;;;5015472;28;20475;-57
2022/11/22 06:06:05;;;;;;;7.07;3.80;;;6.90;99.90;;;;;;5015776;28;20495;-58
2022/11/22 06:08:34;;;;;;;4.00;3.27;;;6.90;99.90;;;;;;5015209;28;20487;-57
2022/11/22 06:11:05;;;;;;;5.13;2.60;;;6.90;99.90;;;;;;5015192;28;20566;-57
2022/11/22 06:13:35;;;;;;;3.37;3.07;;;6.90;99.90;;;;;;5015468;28;20838;-57
2022/11/22 06:16:02;;;;;;;6.73;3.43;;;7.00;99.90;;;;;;5015490;28;20587;-58
2022/11/22 06:18:30;;;;;;;5.37;3.00;;;7.10;99.90;;;;;;5015405;28;20501;-57
2022/11/22 06:20:58;;;;;;;5.10;3.07;;;7.10;99.90;;;;;;5015194;28;20486;-58
2022/11/22 06:23:28;;;;;;;3.87;3.10;;;7.10;99.90;;;;;;5015311;28;20965;-58
2022/11/22 06:26:00;;;;;;;5.10;3.30;;;7.10;99.90;;;;;;5015132;28;20482;-58
2022/11/22 06:28:28;;;;;;;4.83;3.03;;;7.10;99.90;;;;;;5015063;28;20513;-58
2022/11/22 06:31:01;;;;;;;4.27;2.60;;;7.10;99.90;;;;;;5015165;28;20483;-58
2022/11/22 06:33:28;;;;;;;3.77;3.33;;;7.10;99.90;;;;;;5014825;28;20436;-57
2022/11/22 06:36:01;;;;;;;4.10;2.70;;;7.20;99.90;;;;;;5014669;28;20507;-57
2022/11/22 06:38:30;;;;;;;5.23;4.43;;;7.10;99.90;;;;;;5015693;28;20494;-58
2022/11/22 06:41:00;;;;;;;4.63;3.50;;;7.00;99.90;;;;;;5015124;28;20479;-58
2022/11/22 06:43:28;;;;;;;5.80;3.03;;;7.00;99.90;;;;;;5014913;28;20431;-58
2022/11/22 06:45:56;;;;;;;4.57;2.57;;;7.00;99.90;;;;;;5014645;28;20487;-57
2022/11/22 06:48:24;;;;;;;3.60;2.53;;;7.00;99.90;;;;;;5014891;28;20542;-58
2022/11/22 06:50:51;;;;;;;5.53;3.20;;;7.00;99.90;;;;;;5014400;28;20930;-58
2022/11/22 06:53:19;;;;;;;3.90;2.90;;;7.10;99.90;;;;;;5014357;28;20447;-58
2022/11/22 06:55:47;;;;;;;6.83;3.40;;;7.10;99.90;;;;;;5014245;28;20525;-58
2022/11/22 06:58:15;;;;;;;9.60;4.30;;;7.20;99.90;;;;;;5014595;28;20447;-58
2022/11/22 07:00:42;;;;;;;6.23;3.40;;;7.20;99.90;;;;;;5014535;28;20855;-58
2022/11/22 07:03:09;;;;;;;8.80;2.97;;;7.20;99.90;;;;;;5014397;28;20926;-58
2022/11/22 07:05:36;;;;;;;6.07;3.67;;;7.20;99.90;;;;;;5014615;28;20565;-57
2022/11/22 07:08:04;;;;;;;7.80;4.27;;;7.20;99.90;;;;;;5014325;28;20454;-57
2022/11/22 07:10:31;;;;;;;9.40;3.33;;;7.30;99.90;;;;;;5013939;28;20518;-58
2022/11/22 07:13:00;;;;;;;4.97;2.90;;;7.20;99.90;;;;;;5014089;28;20490;-57
2022/11/22 07:15:27;;;;;;;4.10;2.53;;;7.20;99.90;;;;;;5014107;28;21072;-58
2022/11/22 07:17:54;;;;;;;4.23;2.97;;;7.20;99.90;;;;;;5013983;28;20487;-59
2022/11/22 07:20:21;;;;;;;7.40;5.47;;;7.20;99.90;;;;;;5013351;28;20887;-58
2022/11/22 07:22:49;;;;;;;8.30;3.93;;;7.20;99.90;;;;;;5014095;28;20450;-57
2022/11/22 07:25:16;;;;;;;4.73;2.83;;;7.20;99.90;;;;;;5013757;28;20533;-58
2022/11/22 07:27:43;;;;;;;4.50;3.20;;;7.30;99.90;;;;;;5013868;28;20451;-57
2022/11/22 07:30:13;;;;;;;9.53;3.90;;;7.30;99.90;;;;;;5013872;28;20491;-58
2022/11/22 07:32:40;;;;;;;4.80;3.50;;;7.30;99.90;;;;;;5014176;28;20877;-58
2022/11/22 07:35:08;;;;;;;4.60;2.97;;;7.30;99.90;;;;;;5013786;28;20519;-58
2022/11/22 07:37:36;;;;;;;6.53;4.00;;;7.20;99.90;;;;;;5014015;28;20845;-57
2022/11/22 07:40:03;;;;;;;6.03;4.10;;;7.30;99.90;;;;;;5013756;28;20863;-58
2022/11/22 07:42:30;;;;;;;8.83;4.80;;;7.40;99.90;;;;;;5014002;28;20475;-58
2022/11/22 07:44:58;;;;;;;13.63;4.60;;;7.40;99.90;;;;;;5013540;28;20983;-58
2022/11/22 07:47:26;;;;;;;8.27;3.87;;;7.40;99.90;;;;;;5013529;28;21002;-57
2022/11/22 07:49:54;;;;;;;9.03;3.20;;;7.50;99.90;;;;;;5013904;28;20486;-58
2022/11/22 07:52:21;;;;;;;5.60;3.40;;;7.50;99.90;;;;;;5013680;28;20538;-57
2022/11/22 07:54:49;;;;;;;6.03;2.90;;;7.50;99.90;;;;;;5013289;28;20446;-57
2022/11/22 07:57:16;;;;;;;7.17;3.40;;;7.60;99.90;;;;;;5013414;28;20458;-58
2022/11/22 07:59:43;;;;;;;8.67;3.70;;;7.60;99.90;;;;;;5013618;28;20455;-58
2022/11/22 08:02:11;;;;;;;5.23;2.80;;;7.50;99.90;;;;;;5013422;28;21045;-58
2022/11/22 08:04:40;;;;;;;9.63;4.10;;;7.50;99.90;;;;;;5013124;28;20549;-58
2022/11/22 08:07:08;;;;;;;11.57;4.33;;;7.40;99.90;;;;;;5013726;28;20479;-58
2022/11/22 08:09:35;;;;;;;7.07;3.77;;;7.50;99.90;;;;;;5013397;28;20573;-58
2022/11/22 08:12:03;;;;;;;4.73;3.00;;;7.50;99.90;;;;;;5013526;28;20511;-58
2022/11/22 08:14:30;;;;;;;9.77;3.60;;;7.40;99.90;;;;;;5013168;28;20450;-58
2022/11/22 08:16:57;;;;;;;8.20;3.10;;;7.50;99.90;;;;;;5013188;28;20841;-57
2022/11/22 08:19:25;;;;;;;6.27;3.37;;;7.50;99.90;;;;;;5013063;28;20447;-58
2022/11/22 08:21:53;;;;;;;8.50;3.70;;;7.60;99.90;;;;;;5013438;28;20568;-58
2022/11/22 08:24:21;;;;;;;11.50;3.53;;;7.70;99.90;;;;;;5013527;28;20474;-58
2022/11/22 08:26:48;;;;;;;5.17;3.30;;;7.70;99.90;;;;;;5013207;28;20536;-58
2022/11/22 08:29:16;;;;;;;7.70;3.77;;;7.60;99.90;;;;;;5013249;28;20487;-58
2022/11/22 08:31:43;;;;;;;11.23;3.80;;;7.60;99.90;;;;;;5015702;28;20450;-58
2022/11/22 08:34:10;;;;;;;6.23;3.30;;;7.70;99.90;;;;;;5017361;28;20458;-58
2022/11/22 08:36:38;;;;;;;4.83;3.90;;;7.70;99.90;;;;;;5017158;28;20566;-58
2022/11/22 08:39:07;;;;;;;5.40;4.40;;;7.80;99.90;;;;;;5016666;28;20443;-58
2022/11/22 08:41:34;;;;;;;4.33;3.40;;;7.80;99.90;;;;;;5016817;28;20476;-58
2022/11/22 08:44:02;;;;;;;8.47;3.77;;;7.90;99.90;;;;;;5016695;28;20454;-58
2022/11/22 08:46:29;;;;;;;7.23;3.00;;;7.80;99.90;;;;;;5016865;28;20482;-58
2022/11/22 08:48:56;;;;;;;2.90;2.60;;;7.80;99.90;;;;;;5016672;28;20482;-58
2022/11/22 08:51:24;;;;;;;7.63;2.93;;;7.90;99.90;;;;;;5017007;28;20478;-58
2022/11/22 08:53:51;;;;;;;6.13;2.83;;;7.90;99.90;;;;;;5016396;28;20451;-58
2022/11/22 08:56:20;;;;;;;4.37;2.93;;;7.90;99.90;;;;;;5016530;28;20844;-58
2022/11/22 08:58:47;;;;;;;5.50;4.00;;;8.00;99.90;;;;;;5016437;28;20906;-58
2022/11/22 09:01:16;;;;;;;5.33;3.13;;;8.00;99.90;;;;;;5016933;28;20455;-58
2022/11/22 09:03:45;;;;;;;10.60;4.00;;;8.00;99.90;;;;;;5017122;28;20458;-58
2022/11/22 09:06:14;;;;;;;5.30;3.70;;;8.00;99.90;;;;;;5016147;28;20482;-58
2022/11/22 09:08:41;;;;;;;7.50;3.60;;;8.10;99.90;;;;;;5016492;28;20537;-58
2022/11/22 09:11:10;;;;;;;6.23;3.90;;;8.10;99.90;;;;;;5016249;28;20482;-58
2022/11/22 09:13:39;;;;;;;11.90;3.53;;;8.20;99.90;;;;;;5016295;28;20451;-58
2022/11/22 09:16:08;;;;;;;5.60;3.23;;;8.30;99.90;;;;;;5016201;28;20546;-58
2022/11/22 09:18:35;;;;;;;4.80;3.13;;;8.30;99.90;;;;;;5016240;28;20577;-58
2022/11/22 09:21:05;;;;;;;5.43;4.13;;;8.40;99.90;;;;;;5016267;28;20455;-58
2022/11/22 09:23:33;;;;;;;4.90;3.13;;;8.50;99.90;;;;;;5016197;28;20455;-59
2022/11/22 09:26:01;;;;;;;9.83;3.00;;;8.60;99.90;;;;;;5016037;28;20483;-58
2022/11/22 09:28:29;;;;;;;6.80;2.97;;;8.50;99.90;;;;;;5016036;28;20483;-58
2022/11/22 09:31:02;;;;;;;4.77;3.27;;;8.50;99.90;;;;;;5016548;28;20474;-58
2022/11/22 09:33:30;;;;;;;7.20;3.97;;;8.60;99.90;;;;;;5016107;28;20993;-58
2022/11/22 09:36:01;;;;;;;11.83;3.40;;;8.60;99.90;;;;;;5015983;28;20475;-58
2022/11/22 09:38:28;;;;;;;6.13;3.53;;;8.60;99.90;;;;;;5015894;28;20447;-58
2022/11/22 09:40:56;;;;;;;3.97;3.03;;;8.70;99.90;;;;;;5015969;28;20486;-58
2022/11/22 09:43:37;;;;;;;6.93;3.20;;;8.70;99.90;;;;;;5015414;28;20486;-58
2022/11/22 09:46:15;;;;;;;5.27;3.00;;;8.80;99.90;;;;;;5015679;28;20482;-58
2022/11/22 09:49:10;;;;;;;5.80;3.10;;;8.80;99.90;;;;;;5015741;28;20474;-58
2022/11/22 09:51:41;;;;;;;8.30;3.00;;;8.80;99.90;;;;;;5015648;28;20450;-58
2022/11/22 09:54:12;;;;;;;5.37;3.00;;;8.80;99.90;;;;;;5015669;28;20467;-57
2022/11/22 09:56:40;;;;;;;17.20;4.37;;;8.80;99.90;;;;;;5015515;28;20510;-58
2022/11/22 09:59:13;;;;;;;7.97;3.33;;;8.80;99.90;;;;;;5015826;28;20542;-58
2022/11/22 10:01:49;;;;;;;8.60;3.50;;;8.90;99.90;;;;;;5015941;28;20435;-58
2022/11/22 10:04:21;;;;;;;8.40;3.07;;;8.70;99.90;;;;;;5016020;28;20458;-59
2022/11/22 10:06:53;;;;;;;9.83;3.27;;;8.70;99.90;;;;;;5015335;28;20487;-58
2022/11/22 10:09:30;;;;;;;4.97;2.77;;;8.70;99.90;;;;;;5015368;28;20522;-59
2022/11/22 10:12:02;;;;;;;13.70;4.77;;;8.60;99.90;;;;;;5015344;28;20435;-58
2022/11/22 10:14:37;;;;;;;6.83;3.00;;;8.60;99.90;;;;;;5015188;28;20470;-58
2022/11/22 10:17:22;;;;;;;6.30;3.20;;;8.70;99.90;;;;;;5014972;28;20498;-59
2022/11/22 10:19:59;;;;;;;6.73;3.00;;;8.80;99.90;;;;;;5015205;28;20439;-58
2022/11/22 10:22:29;;;;;;;6.10;2.57;;;8.70;99.90;;;;;;5015051;28;20423;-58
2022/11/22 10:24:59;;;;;;;8.00;2.93;;;8.70;99.90;;;;;;5015513;28;20499;-58
2022/11/22 10:27:31;;;;;;;5.73;2.97;;;8.70;99.90;;;;;;5014811;28;20482;-58
2022/11/22 10:30:04;;;;;;;4.67;3.53;;;8.70;99.90;;;;;;5014899;28;20518;-58
2022/11/22 10:32:39;;;;;;;6.50;2.77;;;8.80;99.90;;;;;;5015895;28;20518;-58
2022/11/22 10:35:28;;;;;;;4.50;3.00;;;8.80;99.90;;;;;;5014636;28;20569;-58
2022/11/22 10:38:04;;;;;;;6.50;3.13;;;8.80;99.90;;;;;;5014796;28;20986;-58
2022/11/22 10:40:42;;;;;;;5.70;2.97;;;8.70;99.90;;;;;;5014678;28;20494;-58
2022/11/22 10:43:31;;;;;;;5.37;2.93;;;8.70;99.90;;;;;;5014452;28;20470;-58
2022/11/22 10:46:09;;;;;;;6.23;3.20;;;8.80;99.90;;;;;;5015634;28;20862;-58
2022/11/22 10:48:44;;;;;;;6.27;2.50;;;8.80;99.90;;;;;;5014946;28;20791;-58
2022/11/22 10:51:19;;;;;;;3.20;2.80;;;8.90;99.90;;;;;;5014657;28;20921;-59
2022/11/22 10:53:57;;;;;;;6.77;3.17;;;8.90;99.90;;;;;;5013522;28;20542;-59
2022/11/22 10:56:30;;;;;;;5.73;2.97;;;8.80;99.90;;;;;;5014347;28;21019;-59
2022/11/22 10:59:18;;;;;;;6.90;2.77;;;8.80;99.90;;;;;;5014158;28;20948;-58
2022/11/22 11:01:54;;;;;;;6.73;3.10;;;8.80;99.90;;;;;;5014040;28;20530;-58
2022/11/22 11:04:25;;;;;;;5.30;3.00;;;8.80;99.90;;;;;;5013938;28;20516;-58
2022/11/22 11:06:56;;;;;;;5.97;3.07;;;8.80;99.90;;;;;;5014053;28;20570;-58
2022/11/22 11:09:30;;;;;;;10.37;2.87;;;8.90;99.90;;;;;;5014191;28;20497;-58
2022/11/22 11:12:00;;;;;;;6.97;2.73;;;8.80;99.90;;;;;;5014508;28;20823;-58
2022/11/22 11:14:31;;;;;;;3.93;2.73;;;8.80;99.90;;;;;;5013926;28;20489;-58
2022/11/22 11:17:00;;;;;;;4.17;2.00;;;8.90;99.90;;;;;;5014320;28;20499;-59
2022/11/22 11:19:32;;;;;;;7.10;2.57;;;8.80;99.90;;;;;;5014676;28;20942;-58
2022/11/22 11:22:05;;;;;;;5.90;2.33;;;8.90;99.90;;;;;;5014271;28;20431;-58
2022/11/22 11:24:32;;;;;;;11.57;2.50;;;9.10;99.90;;;;;;5013656;28;20486;-58
2022/11/22 11:27:01;;;;;;;5.77;3.07;;;9.10;99.90;;;;;;5014020;28;20522;-59
2022/11/22 11:29:45;;;;;;;7.73;3.03;;;9.10;99.90;;;;;;5014215;28;20447;-58
2022/11/22 11:32:14;;;;;;;3.27;1.90;;;9.00;99.90;;;;;;5013074;28;20458;-58
2022/11/22 11:34:50;;;;;;;8.20;2.97;;;8.90;99.90;;;;;;5013701;28;20505;-58
2022/11/22 11:37:24;;;;;;;6.30;2.57;;;9.00;99.90;;;;;;5014169;28;20427;-58
2022/11/22 11:39:51;;;;;;;3.87;2.17;;;9.00;99.90;;;;;;5013773;28;20927;-58
2022/11/22 11:42:24;;;;;;;5.83;2.87;;;8.90;99.90;;;;;;5014060;28;20478;-58
2022/11/22 11:44:52;;;;;;;3.90;2.40;;;9.00;99.90;;;;;;5013649;28;20521;-58
2022/11/22 11:47:30;;;;;;;7.90;2.80;;;9.00;99.90;;;;;;5013619;28;20479;-58
2022/11/22 11:50:00;;;;;;;6.63;2.53;;;9.00;99.90;;;;;;5013965;28;20501;-59
2022/11/22 11:52:28;;;;;;;4.77;2.47;;;9.00;99.90;;;;;;5013653;28;20447;-59
2022/11/22 11:54:58;;;;;;;3.37;2.50;;;9.00;99.90;;;;;;5013617;28;20474;-59
2022/11/22 11:57:29;;;;;;;3.67;1.93;;;9.00;99.90;;;;;;5013660;28;20950;-59
2022/11/22 11:59:59;;;;;;;10.30;3.10;;;9.00;99.90;;;;;;5013549;28;20493;-58
2022/11/22 12:02:35;;;;;;;10.53;2.90;;;9.10;99.90;;;;;;5013775;28;20498;-58
2022/11/22 12:05:07;;;;;;;3.20;2.33;;;9.30;99.90;;;;;;5014117;28;20525;-59
2022/11/22 12:07:42;;;;;;;5.67;2.97;;;9.30;99.90;;;;;;5019830;28;20976;-58
2022/11/22 12:10:31;;;;;;;4.37;2.43;;;9.40;99.90;;;;;;5020156;28;20562;-58
2022/11/22 12:13:03;;;;;;;6.07;2.30;;;9.40;99.90;;;;;;5020077;28;20454;-58
2022/11/22 12:15:42;;;;;;;8.70;2.10;;;9.40;99.90;;;;;;5019620;28;20557;-58
2022/11/22 12:18:25;;;;;;;3.53;2.03;;;9.30;99.90;;;;;;5019862;28;20957;-59
2022/11/22 12:21:03;;;;;;;4.80;2.20;;;9.30;99.90;;;;;;5019913;28;20890;-58
2022/11/22 12:23:37;;;;;;;8.50;5.40;;;9.40;99.90;;;;;;5019999;28;20431;-58
2022/11/22 12:26:06;;;;;;;3.97;2.90;;;9.30;99.90;;;;;;5019701;28;21016;-58
2022/11/22 12:28:33;;;;;;;3.47;2.20;;;9.40;99.90;;;;;;5019789;28;20450;-58
2022/11/22 12:31:05;;;;;;;10.00;3.27;;;9.40;99.90;;;;;;5019570;28;21114;-58
2022/11/22 12:33:37;;;;;;;5.83;2.53;;;9.50;99.90;;;;;;5019657;28;20462;-58
2022/11/22 12:36:11;;;;;;;3.83;1.70;;;9.60;99.90;;;;;;5019592;28;20561;-58
2022/11/22 12:38:41;;;;;;;7.13;1.90;;;9.60;99.90;;;;;;5019722;28;20465;-58
2022/11/22 12:41:15;;;;;;;6.33;2.40;;;9.70;99.90;;;;;;5019851;28;20789;-58
2022/11/22 12:43:48;;;;;;;4.70;2.17;;;9.60;99.90;;;;;;5019750;28;20471;-58
2022/11/22 12:46:20;;;;;;;5.80;2.00;;;9.50;99.90;;;;;;5019393;28;20521;-58
2022/11/22 12:48:53;;;;;;;5.27;1.97;;;9.40;99.90;;;;;;5019469;28;20443;-58
2022/11/22 12:51:28;;;;;;;3.93;2.00;;;9.30;99.90;;;;;;5019432;28;20505;-58
2022/11/22 12:54:00;;;;;;;5.30;3.10;;;9.20;99.90;;;;;;5019197;28;20481;-58
2022/11/22 12:56:31;;;;;;;5.90;2.00;;;9.50;99.90;;;;;;5019660;28;20855;-58
2022/11/22 12:59:02;;;;;;;4.77;1.60;;;9.40;99.90;;;;;;5019631;28;20462;-58
2022/11/22 13:01:34;;;;;;;4.17;1.80;;;9.40;99.90;;;;;;5020222;28;20438;-58
2022/11/22 13:04:06;;;;;;;4.97;2.00;;;9.50;99.90;;;;;;5019219;28;20434;-59
2022/11/22 13:06:44;;;;;;;5.23;2.30;;;9.50;99.90;;;;;;5019177;28;21043;-59
2022/11/22 13:09:15;;;;;;;6.53;2.10;;;9.60;99.90;;;;;;5019023;28;20488;-59
2022/11/22 13:11:49;;;;;;;4.67;2.20;;;9.60;99.90;;;;;;5019425;28;20435;-58
2022/11/22 13:14:20;;;;;;;3.63;1.90;;;9.60;99.90;;;;;;5018994;28;20438;-58
2022/11/22 13:16:47;;;;;;;8.10;2.50;;;9.60;99.90;;;;;;5017318;28;20471;-58
2022/11/22 13:19:17;;;;;;;7.87;2.57;;;9.60;99.90;;;;;;5016393;28;20454;-58